Time;durP1;ratioP1;P1;durP2;ratioP2;P2;SDS_P1;SDS_P2;PMS_P1;PMS_P2;Temp;Humidity;BMP_temperature;BMP_pressure;BME280_temperature;BME280_humidity;BME280_pressure;Samples;Min_cycle;Max_cycle;Signal;HPM_P1;HPM_P2
2022/03/10 00:02:24;;;;;;;1999.90;999.90;;;;;;;4.50;81.95;163596.03;5008178;28;20052;-67
2022/03/10 00:04:51;;;;;;;1999.90;999.90;;;;;;;4.89;81.39;163701.63;4994443;28;20343;-69
2022/03/10 00:07:18;;;;;;;1999.90;999.90;;;;;;;4.75;81.85;163663.25;5001859;28;20062;-67
2022/03/10 00:09:44;;;;;;;1999.90;999.90;;;;;;;4.81;80.90;163679.72;4996120;28;20057;-67
2022/03/10 00:12:11;;;;;;;1999.90;999.90;;;;;;;5.05;80.17;163744.19;4985241;28;20058;-67
2022/03/10 00:14:40;;;;;;;1999.90;999.90;;;;;;;5.09;80.06;163753.78;5005523;28;20050;-68
2022/03/10 00:17:06;;;;;;;1999.90;999.90;;;;;;;5.23;79.65;163792.22;4998119;28;20053;-68
2022/03/10 00:19:34;;;;;;;1999.90;999.90;;;;;;;5.56;78.94;163880.03;5002248;28;20454;-67
2022/03/10 00:22:01;;;;;;;1999.90;999.90;;;;;;;5.73;78.10;163923.97;4983028;28;20076;-67
2022/03/10 00:24:27;;;;;;;1999.90;999.90;;;;;;;4.85;81.42;163690.66;5006746;28;20054;-67
2022/03/10 00:26:54;;;;;;;1999.90;999.90;;;;;;;4.65;83.53;163635.81;5006451;28;20057;-68
2022/03/10 00:29:20;;;;;;;1999.90;999.90;;;;;;;5.15;82.19;163770.28;4997875;28;20058;-66
2022/03/10 00:31:47;;;;;;;1999.90;999.90;;;;;;;4.27;85.60;163535.66;5004414;28;20050;-66
2022/03/10 00:34:14;;;;;;;1999.90;999.90;;;;;;;4.63;84.14;163630.31;4979890;28;20086;-67
2022/03/10 00:36:40;;;;;;;1999.90;999.90;;;;;;;4.08;86.64;163483.56;5006760;28;20443;-66
2022/03/10 00:39:07;;;;;;;1999.90;999.90;;;;;;;3.98;87.12;163458.91;4995091;28;20540;-67
2022/03/10 00:41:33;;;;;;;1999.90;999.90;;;;;;;4.15;86.51;163504.13;5002486;28;20430;-68
2022/03/10 00:44:00;;;;;;;1999.90;999.90;;;;;;;3.80;89.15;163410.91;5004785;28;20481;-66
2022/03/10 00:46:26;;;;;;;1999.90;999.90;;;;;;;3.44;90.12;163314.97;4990830;28;20060;-67
2022/03/10 00:48:53;;;;;;;1999.90;999.90;;;;;;;3.31;91.71;163280.69;4999917;28;20053;-67
2022/03/10 00:51:20;;;;;;;1999.90;999.90;;;;;;;3.53;90.98;163338.28;4997884;28;20370;-67
2022/03/10 00:53:46;;;;;;;1999.90;999.90;;;;;;;4.02;88.10;163469.88;5005381;28;20060;-67
2022/03/10 00:56:13;;;;;;;1999.90;999.90;;;;;;;3.80;88.14;163410.91;5003045;28;20069;-66
2022/03/10 00:58:39;;;;;;;1999.90;999.90;;;;;;;4.30;87.02;163542.53;4992038;28;20307;-66
2022/03/10 01:01:09;;;;;;;1999.90;999.90;;;;;;;4.27;86.60;163535.66;4991642;28;20203;-67
2022/03/10 01:03:37;;;;;;;1999.90;999.90;;;;;;;3.93;87.44;163443.81;4987526;28;20445;-66
2022/03/10 01:06:03;;;;;;;1999.90;999.90;;;;;;;4.79;84.36;163672.84;5005185;28;20148;-67
2022/03/10 01:08:30;;;;;;;1999.90;999.90;;;;;;;3.80;87.94;163410.91;4995078;28;20083;-66
2022/03/10 01:10:57;;;;;;;1999.90;999.90;;;;;;;3.80;88.01;163410.91;5004077;28;20360;-67
2022/03/10 01:13:23;;;;;;;1999.90;999.90;;;;;;;3.81;88.74;163413.66;5004494;28;20073;-67
2022/03/10 01:15:50;;;;;;;1999.90;999.90;;;;;;;3.10;91.02;163224.50;4989109;28;20049;-66
2022/03/10 01:18:17;;;;;;;1999.90;999.90;;;;;;;2.96;92.44;163187.53;5001534;28;20598;-66
2022/03/10 01:20:44;;;;;;;1999.90;999.90;;;;;;;3.49;90.96;163328.66;4993989;28;20045;-67
2022/03/10 01:23:10;;;;;;;1999.90;999.90;;;;;;;3.47;89.93;163323.19;5004437;28;20446;-66
2022/03/10 01:25:38;;;;;;;1999.90;999.90;;;;;;;3.10;90.54;163224.50;4990892;28;20334;-66
2022/03/10 01:28:05;;;;;;;1999.90;999.90;;;;;;;2.62;91.29;163095.72;5000783;28;20336;-66
2022/03/10 01:30:32;;;;;;;1999.90;999.90;;;;;;;2.61;91.64;163094.34;5001952;28;20351;-66
2022/03/10 01:32:59;;;;;;;1999.90;999.90;;;;;;;2.45;90.66;163051.88;4988946;28;20058;-66
2022/03/10 01:35:26;;;;;;;1999.90;999.90;;;;;;;2.32;89.41;163016.28;5001844;28;20056;-66
2022/03/10 01:37:53;;;;;;;1999.90;999.90;;;;;;;2.44;89.48;163047.78;4994457;28;20061;-66
2022/03/10 01:40:19;;;;;;;1999.90;999.90;;;;;;;2.48;89.34;163058.75;4995750;28;20543;-66
2022/03/10 01:42:47;;;;;;;1999.90;999.90;;;;;;;2.58;89.16;163084.78;4989459;28;20053;-66
2022/03/10 01:45:15;;;;;;;1999.90;999.90;;;;;;;2.70;88.65;163116.28;5000093;28;20095;-66
2022/03/10 01:47:41;;;;;;;1999.90;999.90;;;;;;;2.54;89.21;163075.16;5004376;28;20058;-66
2022/03/10 01:50:12;;;;;;;1999.90;999.90;;;;;;;2.15;90.25;162969.75;4992891;28;20060;-66
2022/03/10 01:52:40;;;;;;;1999.90;999.90;;;;;;;2.39;89.06;163035.47;5007462;28;20406;-66
2022/03/10 01:55:07;;;;;;;1999.90;999.90;;;;;;;2.08;89.28;162951.94;4989711;28;20050;-66
2022/03/10 01:57:34;;;;;;;1999.90;999.90;;;;;;;2.14;89.17;162967.00;5000255;28;20046;-66
2022/03/10 02:00:03;;;;;;;1999.90;999.90;;;;;;;2.05;88.46;162945.06;4990938;28;20053;-65
2022/03/10 02:02:30;;;;;;;1999.90;999.90;;;;;;;1.91;89.50;162908.13;5004463;28;20048;-66
2022/03/10 02:04:56;;;;;;;1999.90;999.90;;;;;;;1.99;89.25;162927.28;5004653;28;20132;-66
2022/03/10 02:10:16;;;;;;;1999.90;999.90;;;;;;;1.87;89.44;162895.81;5000771;28;20057;-66
2022/03/10 02:12:49;;;;;;;1999.90;999.90;;;;;;;1.87;89.24;162895.81;4987786;28;20438;-66
2022/03/10 02:18:07;;;;;;;1999.90;999.90;;;;;;;1.71;89.90;162854.75;4993709;28;20064;-67
2022/03/10 02:20:35;;;;;;;1999.90;999.90;;;;;;;1.57;89.00;162816.41;5004229;28;20056;-66
2022/03/10 02:23:03;;;;;;;1999.90;999.90;;;;;;;1.81;88.73;162880.72;4998833;28;20067;-66
2022/03/10 02:25:30;;;;;;;1999.90;999.90;;;;;;;1.41;89.33;162773.97;4998666;28;20054;-66
2022/03/10 02:27:57;;;;;;;1999.90;999.90;;;;;;;1.49;89.35;162794.50;4995082;28;20046;-66
2022/03/10 02:30:25;;;;;;;1999.90;999.90;;;;;;;1.41;89.14;162773.97;4987206;28;20193;-66
2022/03/10 02:32:52;;;;;;;1999.90;999.90;;;;;;;1.72;87.45;162857.47;5004254;28;20467;-66
2022/03/10 02:35:19;;;;;;;1999.90;999.90;;;;;;;1.80;87.18;162876.63;4978932;28;20481;-66
2022/03/10 02:37:46;;;;;;;1999.90;999.90;;;;;;;1.94;85.93;162916.31;5004425;28;20064;-66
2022/03/10 02:40:13;;;;;;;1999.90;999.90;;;;;;;1.63;86.56;162832.81;4991366;28;20084;-66
2022/03/10 02:42:40;;;;;;;1999.90;999.90;;;;;;;1.65;86.95;162838.28;4978492;28;20043;-66
2022/03/10 02:45:08;;;;;;;1999.90;999.90;;;;;;;1.26;87.51;162734.28;5000716;28;20053;-66
2022/03/10 02:47:34;;;;;;;1999.90;999.90;;;;;;;1.48;87.66;162791.78;4987017;28;20054;-66
2022/03/10 02:50:03;;;;;;;1999.90;999.90;;;;;;;2.05;84.99;162945.06;4999014;28;20057;-67
2022/03/10 02:52:30;;;;;;;1999.90;999.90;;;;;;;1.18;86.58;162712.41;4985109;28;20460;-66
2022/03/10 02:54:56;;;;;;;1999.90;999.90;;;;;;;1.05;88.29;162679.53;4994715;28;20057;-66
2022/03/10 02:57:23;;;;;;;1999.90;999.90;;;;;;;1.14;88.36;162701.47;5001361;28;20440;-66
2022/03/10 02:59:50;;;;;;;1999.90;999.90;;;;;;;0.92;87.97;162642.63;4992079;28;20057;-66
2022/03/10 03:02:16;;;;;;;1999.90;999.90;;;;;;;0.80;88.93;162612.50;5004929;28;20038;-66
2022/03/10 03:04:43;;;;;;;1999.90;999.90;;;;;;;1.13;86.71;162698.72;4990116;28;20045;-66
2022/03/10 03:07:10;;;;;;;1999.90;999.90;;;;;;;1.53;85.31;162805.44;4999080;28;20057;-66
2022/03/10 03:09:37;;;;;;;1999.90;999.90;;;;;;;1.24;85.93;162728.84;4988130;28;20146;-66
2022/03/10 03:12:04;;;;;;;1999.90;999.90;;;;;;;0.72;86.75;162589.28;5001738;28;20461;-66
2022/03/10 03:14:30;;;;;;;1999.90;999.90;;;;;;;0.39;87.66;162501.72;5002415;28;20057;-66
2022/03/10 03:16:57;;;;;;;1999.90;999.90;;;;;;;0.43;86.93;162512.66;4988871;28;20245;-66
2022/03/10 03:19:25;;;;;;;1999.90;999.90;;;;;;;0.61;86.67;162560.53;4993944;28;20061;-66
2022/03/10 03:21:52;;;;;;;1999.90;999.90;;;;;;;0.39;85.36;162501.72;4994049;28;20358;-66
2022/03/10 03:24:19;;;;;;;1999.90;999.90;;;;;;;0.46;84.68;162520.88;5004226;28;20068;-66
2022/03/10 03:26:47;;;;;;;1999.90;999.90;;;;;;;0.43;84.38;162512.66;4998244;28;20050;-65
2022/03/10 03:29:13;;;;;;;1999.90;999.90;;;;;;;0.06;85.38;162415.63;5006939;28;20060;-66
2022/03/10 03:31:40;;;;;;;1999.90;999.90;;;;;;;-0.02;86.28;162395.06;5008258;28;20042;-65
2022/03/10 03:34:10;;;;;;;1999.90;999.90;;;;;;;0.31;85.23;162482.63;4995393;28;20072;-66
2022/03/10 03:36:38;;;;;;;1999.90;999.90;;;;;;;-0.08;86.04;162378.66;4996907;28;20362;-65
2022/03/10 03:39:06;;;;;;;1999.90;999.90;;;;;;;-0.06;86.50;162384.16;4999156;28;20058;-65
2022/03/10 03:41:32;;;;;;;1999.90;999.90;;;;;;;0.17;84.97;162445.66;5006827;28;20435;-65
2022/03/10 03:43:59;;;;;;;1999.90;999.90;;;;;;;-0.17;86.23;162352.72;5004734;28;20052;-67
2022/03/10 03:46:26;;;;;;;1999.90;999.90;;;;;;;-0.18;86.62;162351.31;5002237;28;20463;-67
2022/03/10 03:48:53;;;;;;;1999.90;999.90;;;;;;;-0.21;86.14;162344.53;5002959;28;20054;-67
2022/03/10 03:51:19;;;;;;;1999.90;999.90;;;;;;;0.04;85.82;162408.78;4994505;28;20061;-67
2022/03/10 03:53:47;;;;;;;1999.90;999.90;;;;;;;-0.22;85.56;162340.44;5006209;28;20057;-67
2022/03/10 03:56:16;;;;;;;1999.90;999.90;;;;;;;0.32;84.55;162485.31;4997294;28;20328;-67
2022/03/10 03:58:44;;;;;;;1999.90;999.90;;;;;;;-0.18;85.19;162351.31;5009332;28;20058;-67
2022/03/10 04:01:11;;;;;;;1999.90;999.90;;;;;;;-0.23;86.37;162337.69;4995197;28;20058;-67
2022/03/10 04:03:38;;;;;;;1999.90;999.90;;;;;;;0.74;83.05;162596.09;4991075;28;20143;-68
2022/03/10 04:06:05;;;;;;;1999.90;999.90;;;;;;;0.72;82.47;162590.66;4996489;28;20328;-67
2022/03/10 04:08:31;;;;;;;1999.90;999.90;;;;;;;0.47;83.97;162524.97;4993068;28;20046;-67
2022/03/10 04:10:58;;;;;;;1999.90;999.90;;;;;;;0.11;84.95;162427.91;5001428;28;20332;-67
2022/03/10 04:13:25;;;;;;;1999.90;999.90;;;;;;;-0.19;86.50;162348.63;4997793;28;20446;-67
2022/03/10 04:15:52;;;;;;;1999.90;999.90;;;;;;;0.01;85.99;162401.91;5007224;28;20057;-67
2022/03/10 04:18:18;;;;;;;1999.90;999.90;;;;;;;-0.08;85.73;162378.66;5003028;28;20092;-65
2022/03/10 04:20:46;;;;;;;1999.90;999.90;;;;;;;0.47;84.36;162523.63;4991999;28;20081;-66
2022/03/10 04:23:14;;;;;;;1999.90;999.90;;;;;;;0.82;82.41;162616.59;5004342;28;20052;-66
2022/03/10 04:25:41;;;;;;;1999.90;999.90;;;;;;;0.87;82.51;162630.31;4993489;28;20072;-66
2022/03/10 04:28:08;;;;;;;1999.90;999.90;;;;;;;0.96;81.14;162654.94;4997850;28;20057;-68
2022/03/10 04:30:39;;;;;;;1999.90;999.90;;;;;;;1.15;80.81;162704.22;4980904;28;20055;-67
2022/03/10 04:33:06;;;;;;;1999.90;999.90;;;;;;;1.72;78.83;162856.09;4991859;28;20046;-68
2022/03/10 04:35:33;;;;;;;1999.90;999.90;;;;;;;1.29;80.25;162742.50;5002446;28;20054;-67
2022/03/10 04:37:59;;;;;;;1999.90;999.90;;;;;;;1.45;79.61;162784.94;4988564;28;20427;-68
2022/03/10 04:40:26;;;;;;;1999.90;999.90;;;;;;;0.86;81.41;162627.56;5006751;28;20049;-66
2022/03/10 04:42:53;;;;;;;1999.90;999.90;;;;;;;0.65;81.21;162571.50;4985224;28;20077;-67
2022/03/10 04:45:23;;;;;;;1999.90;999.90;;;;;;;-0.14;84.15;162362.28;4991050;28;20050;-67
2022/03/10 04:47:49;;;;;;;1999.90;999.90;;;;;;;0.34;82.18;162489.41;4989609;28;20054;-66
2022/03/10 04:50:17;;;;;;;1999.90;999.90;;;;;;;-0.26;83.38;162329.47;5012046;28;20358;-66
2022/03/10 04:52:45;;;;;;;1999.90;999.90;;;;;;;0.10;82.34;162425.16;5002139;28;20049;-67
2022/03/10 04:55:13;;;;;;;1999.90;999.90;;;;;;;0.33;80.60;162488.06;4994855;28;20053;-67
2022/03/10 04:57:41;;;;;;;1999.90;999.90;;;;;;;0.63;78.99;162567.38;4999678;28;20056;-67
2022/03/10 05:00:10;;;;;;;1999.90;999.90;;;;;;;0.50;79.87;162531.81;4994304;28;20053;-67
2022/03/10 05:02:39;;;;;;;1999.90;999.90;;;;;;;0.62;79.02;162564.63;4992370;28;20046;-67
2022/03/10 05:05:11;;;;;;;1999.90;999.90;;;;;;;0.66;78.56;162574.25;4986846;28;20137;-66
2022/03/10 05:07:38;;;;;;;1999.90;999.90;;;;;;;0.32;80.01;162485.31;5003479;28;20347;-67
2022/03/10 05:10:05;;;;;;;1999.90;999.90;;;;;;;0.11;80.88;162427.91;5003263;28;20068;-67
2022/03/10 05:12:32;;;;;;;1999.90;999.90;;;;;;;0.04;80.82;162410.13;4992722;28;20046;-67
2022/03/10 05:14:58;;;;;;;1999.90;999.90;;;;;;;0.23;81.16;162460.72;4992676;28;20520;-68
2022/03/10 05:17:25;;;;;;;1999.90;999.90;;;;;;;0.09;80.92;162422.41;4993692;28;20065;-67
2022/03/10 05:19:52;;;;;;;1999.90;999.90;;;;;;;-0.13;81.47;162365.03;5004164;28;20100;-67
2022/03/10 05:22:19;;;;;;;1999.90;999.90;;;;;;;0.35;80.36;162492.16;5001631;28;20220;-67
2022/03/10 05:24:46;;;;;;;1999.90;999.90;;;;;;;0.05;81.23;162411.50;4995032;28;20057;-67
2022/03/10 05:27:13;;;;;;;1999.90;999.90;;;;;;;-0.11;81.74;162370.47;4998296;28;20054;-67
2022/03/10 05:29:40;;;;;;;1999.90;999.90;;;;;;;-0.37;82.11;162302.16;4988005;28;20056;-67
2022/03/10 05:32:11;;;;;;;1999.90;999.90;;;;;;;-0.03;82.43;162392.38;5004513;28;20073;-67
2022/03/10 05:34:38;;;;;;;;;;;;;;;0.30;80.96;162479.88;4989378;28;20494;-68
2022/03/10 05:37:05;;;;;;;1999.90;999.90;;;;;;;0.47;79.81;162524.97;4999991;28;20197;-68
2022/03/10 05:39:32;;;;;;;1999.90;999.90;;;;;;;-0.04;81.77;162388.28;4999502;28;20405;-67
2022/03/10 05:41:59;;;;;;;1999.90;999.90;;;;;;;0.18;81.59;162447.06;4985975;28;20065;-68
2022/03/10 05:44:25;;;;;;;1999.90;999.90;;;;;;;0.03;81.70;162407.41;4986720;28;20085;-67
2022/03/10 05:46:52;;;;;;;1999.90;999.90;;;;;;;-0.02;82.50;162393.72;4995764;28;20049;-68
2022/03/10 05:49:19;;;;;;;1999.90;999.90;;;;;;;-0.10;83.24;162373.22;4994879;28;20455;-67
2022/03/10 05:51:46;;;;;;;1999.90;999.90;;;;;;;-0.07;83.06;162380.06;4993192;28;20062;-67
2022/03/10 05:54:13;;;;;;;1999.90;999.90;;;;;;;-0.08;83.72;162377.31;5004270;28;20054;-67
2022/03/10 05:56:39;;;;;;;1999.90;999.90;;;;;;;-0.40;84.75;162292.59;4995309;28;20045;-67
2022/03/10 05:59:06;;;;;;;1999.90;999.90;;;;;;;0.29;83.14;162475.75;4989220;28;20060;-68
2022/03/10 06:01:34;;;;;;;1999.90;999.90;;;;;;;0.34;82.42;162490.81;5005474;28;20353;-67
2022/03/10 06:04:01;;;;;;;1999.90;999.90;;;;;;;-0.16;84.17;162355.44;4993101;28;20065;-67
2022/03/10 06:06:30;;;;;;;1999.90;999.90;;;;;;;-0.32;84.56;162313.09;4998247;28;20081;-67
2022/03/10 06:08:57;;;;;;;1999.90;999.90;;;;;;;0.18;83.01;162447.06;4989525;28;20045;-67
2022/03/10 06:11:23;;;;;;;1999.90;999.90;;;;;;;0.01;84.37;162400.56;5000265;28;20050;-68
2022/03/10 06:13:50;;;;;;;1999.90;999.90;;;;;;;0.22;83.90;162456.63;5004341;28;20054;-68
2022/03/10 06:16:17;;;;;;;1999.90;999.90;;;;;;;0.47;81.84;162523.63;4992452;28;20050;-67
2022/03/10 06:18:44;;;;;;;1999.90;999.90;;;;;;;0.44;82.59;162515.41;5004763;28;20064;-66
2022/03/10 06:21:10;;;;;;;1999.90;999.90;;;;;;;-0.04;83.68;162388.28;4989885;28;20347;-66
2022/03/10 06:23:37;;;;;;;1999.90;999.90;;;;;;;-0.16;85.42;162356.81;4998884;28;20054;-66
2022/03/10 06:26:04;;;;;;;1999.90;999.90;;;;;;;-0.08;84.93;162378.66;4990774;28;20050;-66
2022/03/10 06:28:31;;;;;;;1999.90;999.90;;;;;;;-0.37;85.13;162302.16;5003731;28;20053;-65
2022/03/10 06:30:57;;;;;;;1999.90;999.90;;;;;;;0.15;85.12;162438.88;5006185;28;20046;-66
2022/03/10 06:33:25;;;;;;;1999.90;999.90;;;;;;;-0.43;86.61;162285.75;4993309;28;20046;-66
2022/03/10 06:35:51;;;;;;;1999.90;999.90;;;;;;;-0.43;86.39;162285.75;5003763;28;20081;-66
2022/03/10 06:38:18;;;;;;;1999.90;999.90;;;;;;;0.14;85.59;162436.13;4989900;28;20064;-66
2022/03/10 06:42:44;;;;;;;1999.90;999.90;;;;;;;-0.24;86.38;162336.34;5064797;27;20413;-67
2022/03/10 06:45:13;;;;;;;1999.90;999.90;;;;;;;-0.55;86.80;162254.31;5045572;28;20071;-67
2022/03/10 06:47:40;;;;;;;1999.90;999.90;;;;;;;-0.68;87.18;162217.44;5054262;28;20331;-67
2022/03/10 06:50:07;;;;;;;1999.90;999.90;;;;;;;-0.49;86.15;162269.34;5079313;28;20049;-67
2022/03/10 06:52:34;;;;;;;1999.90;999.90;;;;;;;-0.63;86.39;162231.06;5056005;28;20052;-67
2022/03/10 06:55:00;;;;;;;1999.90;999.90;;;;;;;-0.36;85.32;162304.88;5050139;28;20052;-67
2022/03/10 06:57:27;;;;;;;1999.90;999.90;;;;;;;-0.28;84.19;162324.00;5062037;28;20063;-67
2022/03/10 06:59:53;;;;;;;1999.90;999.90;;;;;;;-0.09;82.13;162375.97;5054991;28;20053;-67
2022/03/10 07:02:20;;;;;;;1999.90;999.90;;;;;;;0.23;81.07;162460.72;5049034;28;20049;-67
2022/03/10 07:04:47;;;;;;;1999.90;999.90;;;;;;;-0.10;80.20;162373.22;5057292;28;20049;-67
2022/03/10 07:07:13;;;;;;;1999.90;999.90;;;;;;;-0.54;81.60;162255.66;5046036;28;20049;-67
2022/03/10 07:09:41;;;;;;;1999.90;999.90;;;;;;;0.35;79.24;162493.53;5061980;28;20393;-68
2022/03/10 07:12:09;;;;;;;1999.90;999.90;;;;;;;-0.01;78.93;162397.81;5053187;28;20476;-67
2022/03/10 07:14:36;;;;;;;1999.90;999.90;;;;;;;-0.50;80.38;162266.59;5093044;28;20512;-67
2022/03/10 07:17:03;;;;;;;1999.90;999.90;;;;;;;-0.46;80.17;162277.56;5060879;28;20045;-67
2022/03/10 07:19:30;;;;;;;1999.90;999.90;;;;;;;-0.25;80.88;162333.59;5043463;28;20048;-68
2022/03/10 07:21:56;;;;;;;1999.90;999.90;;;;;;;0.15;78.54;162440.22;5054123;28;20049;-67
2022/03/10 07:24:23;;;;;;;1999.90;999.90;;;;;;;0.49;76.71;162529.06;5050066;28;20449;-66
2022/03/10 07:26:55;;;;;;;1999.90;999.90;;;;;;;0.06;77.69;162414.22;5056399;28;20131;-66
2022/03/10 07:29:21;;;;;;;1999.90;999.90;;;;;;;0.13;76.69;162433.38;5047583;28;20064;-66
2022/03/10 07:31:48;;;;;;;1999.90;999.90;;;;;;;0.87;73.15;162630.31;5055941;28;20056;-67
2022/03/10 07:34:14;;;;;;;1999.90;999.90;;;;;;;1.21;70.18;162721.97;5055825;28;20065;-67
2022/03/10 07:36:42;;;;;;;1999.90;999.90;;;;;;;1.12;70.08;162696.00;5041827;28;20061;-67
2022/03/10 07:39:09;;;;;;;1999.90;999.90;;;;;;;0.98;71.36;162660.44;5060876;28;20056;-67
2022/03/10 07:41:37;;;;;;;1999.90;999.90;;;;;;;1.12;71.05;162696.00;5048946;28;20057;-67
2022/03/10 07:44:04;;;;;;;1999.90;999.90;;;;;;;0.88;71.71;162633.06;5059074;28;20408;-66
2022/03/10 07:46:30;;;;;;;1999.90;999.90;;;;;;;0.88;71.81;162633.06;5046846;28;20056;-67
2022/03/10 07:49:00;;;;;;;1999.90;999.90;;;;;;;1.13;70.21;162698.72;5047218;28;20059;-67
2022/03/10 07:51:26;;;;;;;1999.90;999.90;;;;;;;0.85;69.46;162626.22;5048927;28;20048;-66
2022/03/10 07:53:53;;;;;;;1999.90;999.90;;;;;;;0.77;70.68;162604.31;5036910;28;20060;-67
2022/03/10 07:56:19;;;;;;;1999.90;999.90;;;;;;;0.54;71.18;162542.78;5045775;28;20330;-66
2022/03/10 07:58:46;;;;;;;1999.90;999.90;;;;;;;0.88;72.36;162633.06;5039235;28;20437;-67
2022/03/10 08:01:12;;;;;;;1999.90;999.90;;;;;;;1.11;69.15;162694.59;5040686;28;20058;-67
2022/03/10 08:03:40;;;;;;;1999.90;999.90;;;;;;;1.30;68.17;162745.25;5025203;28;20041;-67
2022/03/10 08:06:07;;;;;;;1999.90;999.90;;;;;;;0.73;68.57;162592.00;5046710;28;20084;-66
2022/03/10 08:08:35;;;;;;;1999.90;999.90;;;;;;;0.96;68.90;162653.56;5045697;28;20371;-66
2022/03/10 08:11:03;;;;;;;1999.90;999.90;;;;;;;1.03;66.92;162672.75;5032610;28;20051;-66
2022/03/10 08:13:31;;;;;;;1999.90;999.90;;;;;;;0.74;67.94;162594.75;5047854;28;20128;-67
2022/03/10 08:15:59;;;;;;;1999.90;999.90;;;;;;;0.97;66.58;162656.28;5033456;28;20057;-67
2022/03/10 08:18:27;;;;;;;1999.90;999.90;;;;;;;1.04;64.91;162675.44;5043189;28;20051;-67
2022/03/10 08:20:55;;;;;;;1999.90;999.90;;;;;;;1.23;64.26;162726.06;5037803;28;20057;-67
2022/03/10 08:23:22;;;;;;;1999.90;999.90;;;;;;;0.34;66.39;162490.81;5045904;28;20468;-66
2022/03/10 08:25:48;;;;;;;1999.90;999.90;;;;;;;0.46;66.62;162522.28;5045989;28;20053;-67
2022/03/10 08:28:16;;;;;;;1999.90;999.90;;;;;;;0.48;66.19;162526.38;5033629;28;20053;-66
2022/03/10 08:30:43;;;;;;;1999.90;999.90;;;;;;;0.56;65.70;162546.88;5042323;28;20045;-67
2022/03/10 08:33:09;;;;;;;1999.90;999.90;;;;;;;0.70;64.88;162586.53;5033548;28;20056;-66
2022/03/10 08:35:36;;;;;;;1999.90;999.90;;;;;;;0.70;63.06;162586.53;5047852;28;20465;-67
2022/03/10 08:38:03;;;;;;;1999.90;999.90;;;;;;;0.89;63.65;162635.78;5036538;28;20057;-66
2022/03/10 08:40:30;;;;;;;1999.90;999.90;;;;;;;2.08;58.29;162953.31;5046014;28;20102;-66
2022/03/10 08:42:56;;;;;;;1999.90;999.90;;;;;;;2.23;58.54;162991.63;5042308;28;20051;-66
2022/03/10 08:45:26;;;;;;;1999.90;999.90;;;;;;;0.92;61.47;162643.97;5032348;28;20354;-66
2022/03/10 08:47:55;;;;;;;1999.90;999.90;;;;;;;1.98;60.57;162925.94;5038106;28;20052;-67
2022/03/10 08:50:25;;;;;;;1999.90;999.90;;;;;;;3.35;56.82;163290.31;5032615;28;20056;-67
2022/03/10 08:52:51;;;;;;;1999.90;999.90;;;;;;;2.92;55.87;163175.22;5044648;28;20287;-67
2022/03/10 08:55:20;;;;;;;1999.90;999.90;;;;;;;2.17;58.46;162976.56;5034786;28;20049;-67
2022/03/10 08:57:47;;;;;;;1999.90;999.90;;;;;;;2.55;56.97;163076.56;5041309;28;20404;-66
2022/03/10 09:00:15;;;;;;;1999.90;999.90;;;;;;;2.16;57.14;162972.47;5041392;28;20059;-67
2022/03/10 09:02:42;;;;;;;1999.90;999.90;;;;;;;1.57;57.70;162816.41;5029854;28;20063;-67
2022/03/10 09:05:10;;;;;;;1999.90;999.90;;;;;;;2.31;57.80;163013.56;5045054;28;20091;-67
2022/03/10 09:07:37;;;;;;;1999.90;999.90;;;;;;;2.72;55.07;163123.09;5032230;28;20045;-67
2022/03/10 09:10:09;;;;;;;1999.90;999.90;;;;;;;2.82;53.32;163149.16;5044458;28;20129;-67
2022/03/10 09:12:36;;;;;;;1999.90;999.90;;;;;;;2.68;54.81;163112.19;5029058;28;20049;-67
2022/03/10 09:15:03;;;;;;;1999.90;999.90;;;;;;;2.86;53.16;163158.72;5041543;28;20611;-67
2022/03/10 09:17:30;;;;;;;1999.90;999.90;;;;;;;3.24;51.38;163260.16;5045345;28;20076;-67
2022/03/10 09:19:56;;;;;;;1999.90;999.90;;;;;;;2.27;53.91;163003.97;5031952;28;20187;-67
2022/03/10 09:22:25;;;;;;;1999.90;999.90;;;;;;;2.22;53.59;162988.88;5045982;28;20053;-67
2022/03/10 09:24:52;;;;;;;1999.90;999.90;;;;;;;2.15;55.18;162971.09;5035259;28;20048;-67
2022/03/10 09:27:19;;;;;;;1999.90;999.90;;;;;;;2.75;54.74;163129.97;5039049;28;20418;-67
2022/03/10 09:29:45;;;;;;;1999.90;999.90;;;;;;;2.84;52.93;163153.28;5037675;28;20056;-67
2022/03/10 09:32:12;;;;;;;1999.90;999.90;;;;;;;2.19;54.70;162982.06;5045974;28;20049;-67
2022/03/10 09:34:39;;;;;;;1999.90;999.90;;;;;;;1.93;54.50;162912.22;5044930;28;20061;-67
2022/03/10 09:37:06;;;;;;;1999.90;999.90;;;;;;;2.58;53.91;163084.78;5036010;28;20056;-67
2022/03/10 09:39:33;;;;;;;1999.90;999.90;;;;;;;2.54;52.81;163073.81;5040891;28;20060;-66
2022/03/10 09:42:04;;;;;;;1999.90;999.90;;;;;;;3.33;50.52;163286.19;5030690;28;20515;-67
2022/03/10 09:44:36;;;;;;;1999.90;999.90;;;;;;;3.03;52.05;163205.31;5044788;28;20099;-67
2022/03/10 09:47:03;;;;;;;1999.90;999.90;;;;;;;2.95;52.55;163183.44;5036163;28;20055;-67
2022/03/10 09:49:34;;;;;;;1999.90;999.90;;;;;;;2.52;54.22;163068.38;5044769;28;20053;-67
2022/03/10 09:52:00;;;;;;;1999.90;999.90;;;;;;;2.92;53.78;163176.56;5045947;28;20067;-67
2022/03/10 09:54:28;;;;;;;1999.90;999.90;;;;;;;2.62;55.61;163095.72;5031398;28;20408;-67
2022/03/10 09:56:55;;;;;;;1999.90;999.90;;;;;;;2.36;52.83;163025.88;5039844;28;20163;-67
2022/03/10 09:59:22;;;;;;;1999.90;999.90;;;;;;;2.73;51.89;163125.88;5037371;28;20048;-67
2022/03/10 10:01:49;;;;;;;1999.90;999.90;;;;;;;2.42;50.11;163042.31;5035922;28;20377;-66
2022/03/10 10:04:19;;;;;;;1999.90;999.90;;;;;;;3.64;47.79;163367.03;5019520;28;20144;-68
2022/03/10 10:07:06;;;;;;;1999.90;999.90;;;;;;;4.16;45.91;163506.88;5040070;28;20057;-67
2022/03/10 10:09:43;;;;;;;1999.90;999.90;;;;;;;3.81;46.14;163412.25;5021410;28;20326;-67
2022/03/10 10:12:12;;;;;;;1999.90;999.90;;;;;;;4.22;46.89;163523.31;5043424;28;20072;-67
2022/03/10 10:14:47;;;;;;;1999.90;999.90;;;;;;;4.66;46.70;163638.53;5044258;28;20084;-67
2022/03/10 10:17:14;;;;;;;1999.90;999.90;;;;;;;3.76;46.74;163399.94;5022446;28;20098;-67
2022/03/10 10:19:41;;;;;;;1999.90;999.90;;;;;;;3.65;45.96;163371.16;5040634;28;20056;-67
2022/03/10 10:22:29;;;;;;;1999.90;999.90;;;;;;;3.48;48.65;163325.94;5021911;28;20059;-67
2022/03/10 10:24:58;;;;;;;1999.90;999.90;;;;;;;3.29;48.16;163273.81;5036930;28;20163;-67
2022/03/10 10:27:34;;;;;;;1999.90;999.90;;;;;;;3.36;49.35;163293.00;5035590;28;20123;-67
2022/03/10 10:30:05;;;;;;;1999.90;999.90;;;;;;;4.42;47.38;163575.44;5043774;28;20049;-68
2022/03/10 10:32:53;;;;;;;1999.90;999.90;;;;;;;5.02;45.99;163734.59;5034005;28;20049;-67
2022/03/10 10:35:20;;;;;;;1999.90;999.90;;;;;;;4.44;46.08;163580.94;5037456;28;20049;-67
2022/03/10 10:37:52;;;;;;;1999.90;999.90;;;;;;;4.14;45.76;163500.00;5057159;28;20106;-65
2022/03/10 10:40:31;;;;;;;1999.90;999.90;;;;;;;4.00;43.84;163463.00;5032374;28;20063;-66
2022/03/10 10:43:02;;;;;;;1999.90;999.90;;;;;;;4.30;43.24;163543.94;5032355;28;20513;-66
2022/03/10 10:45:34;;;;;;;1999.90;999.90;;;;;;;5.86;39.53;163959.66;5031065;28;20049;-67
2022/03/10 10:48:09;;;;;;;1999.90;999.90;;;;;;;4.59;43.39;163620.72;5043488;28;20056;-67
2022/03/10 10:50:39;;;;;;;1999.90;999.90;;;;;;;3.69;43.42;163382.13;5025352;28;20063;-67
2022/03/10 10:53:07;;;;;;;1999.90;999.90;;;;;;;4.62;42.71;163627.59;5035807;28;20052;-67
2022/03/10 10:55:39;;;;;;;1999.90;999.90;;;;;;;4.32;42.42;163548.06;5032507;28;20506;-67
2022/03/10 10:58:06;;;;;;;1999.90;999.90;;;;;;;4.96;41.17;163719.50;5043721;28;20063;-67
2022/03/10 11:00:42;;;;;;;1999.90;999.90;;;;;;;5.24;41.95;163793.56;5042305;28;20087;-67
2022/03/10 11:03:36;;;;;;;1999.90;999.90;;;;;;;4.58;40.36;163619.38;5029438;28;20049;-67